sensor_id;sensor_type;location;lat;lon;timestamp;pressure;altitude;pressure_sealevel;temperature;humidity
48563;BME280;34981;49.104;11.396;2023-12-29T00:00:59;96826.13;;;5.51;100.00
48563;BME280;34981;49.104;11.396;2023-12-29T00:03:28;96837.59;;;5.52;100.00
48563;BME280;34981;49.104;11.396;2023-12-29T00:05:55;96843.34;;;5.48;100.00
48563;BME280;34981;49.104;11.396;2023-12-29T00:08:22;96846.47;;;5.45;100.00
48563;BME280;34981;49.104;11.396;2023-12-29T00:10:49;96860.06;;;5.37;100.00
48563;BME280;34981;49.104;11.396;2023-12-29T00:13:16;96876.47;;;5.34;100.00
48563;BME280;34981;49.104;11.396;2023-12-29T00:15:52;96876.09;;;5.31;100.00
48563;BME280;34981;49.104;11.396;2023-12-29T00:18:20;96881.63;;;5.29;100.00
48563;BME280;34981;49.104;11.396;2023-12-29T00:20:47;96890.88;;;5.27;100.00
48563;BME280;34981;49.104;11.396;2023-12-29T00:23:31;96909.97;;;5.24;100.00
48563;BME280;34981;49.104;11.396;2023-12-29T00:25:58;96913.88;;;5.21;100.00
48563;BME280;34981;49.104;11.396;2023-12-29T00:28:26;96934.56;;;5.19;100.00
48563;BME280;34981;49.104;11.396;2023-12-29T00:30:53;96945.06;;;5.14;100.00
48563;BME280;34981;49.104;11.396;2023-12-29T00:33:28;96962.06;;;5.13;100.00
48563;BME280;34981;49.104;11.396;2023-12-29T00:35:57;96966.81;;;5.11;100.00
48563;BME280;34981;49.104;11.396;2023-12-29T00:38:26;97000.41;;;5.12;100.00
48563;BME280;34981;49.104;11.396;2023-12-29T00:40:54;97009.03;;;5.14;100.00
48563;BME280;34981;49.104;11.396;2023-12-29T00:43:22;97030.34;;;5.14;100.00
48563;BME280;34981;49.104;11.396;2023-12-29T00:45:50;97032.63;;;5.11;100.00
48563;BME280;34981;49.104;11.396;2023-12-29T00:48:17;97043.06;;;5.12;100.00
48563;BME280;34981;49.104;11.396;2023-12-29T00:50:45;97055.34;;;5.13;100.00
48563;BME280;34981;49.104;11.396;2023-12-29T00:53:12;97067.66;;;5.14;100.00
48563;BME280;34981;49.104;11.396;2023-12-29T00:55:40;97087.97;;;5.15;100.00
48563;BME280;34981;49.104;11.396;2023-12-29T00:58:07;97101.28;;;5.15;100.00
48563;BME280;34981;49.104;11.396;2023-12-29T01:00:34;97109.91;;;5.17;100.00
48563;BME280;34981;49.104;11.396;2023-12-29T01:03:01;97136.13;;;5.20;100.00
48563;BME280;34981;49.104;11.396;2023-12-29T01:05:28;97145.16;;;5.19;100.00
48563;BME280;34981;49.104;11.396;2023-12-29T01:07:55;97159.09;;;5.21;100.00
48563;BME280;34981;49.104;11.396;2023-12-29T01:10:23;97169.56;;;5.23;100.00
48563;BME280;34981;49.104;11.396;2023-12-29T01:12:50;97171.41;;;5.22;100.00
48563;BME280;34981;49.104;11.396;2023-12-29T01:15:17;97173.25;;;5.22;100.00
48563;BME280;34981;49.104;11.396;2023-12-29T01:17:46;97184.72;;;5.22;100.00
48563;BME280;34981;49.104;11.396;2023-12-29T01:20:13;97192.72;;;5.22;100.00
48563;BME280;34981;49.104;11.396;2023-12-29T01:22:40;97199.72;;;5.23;100.00
48563;BME280;34981;49.104;11.396;2023-12-29T01:25:08;97220.84;;;5.25;100.00
48563;BME280;34981;49.104;11.396;2023-12-29T01:27:35;97215.69;;;5.23;100.00
48563;BME280;34981;49.104;11.396;2023-12-29T01:30:02;97234.16;;;5.25;100.00
48563;BME280;34981;49.104;11.396;2023-12-29T01:32:30;97233.34;;;5.24;100.00
48563;BME280;34981;49.104;11.396;2023-12-29T01:34:57;97227.19;;;5.24;100.00
48563;BME280;34981;49.104;11.396;2023-12-29T01:37:25;97231.69;;;5.23;100.00
48563;BME280;34981;49.104;11.396;2023-12-29T01:39:52;97222.06;;;5.22;100.00
48563;BME280;34981;49.104;11.396;2023-12-29T01:42:19;97232.09;;;5.20;100.00
48563;BME280;34981;49.104;11.396;2023-12-29T01:44:47;97244.00;;;5.18;100.00
48563;BME280;34981;49.104;11.396;2023-12-29T01:47:18;97243.19;;;5.17;100.00
48563;BME280;34981;49.104;11.396;2023-12-29T01:49:45;97253.84;;;5.17;100.00
48563;BME280;34981;49.104;11.396;2023-12-29T01:52:14;97255.50;;;5.18;100.00
48563;BME280;34981;49.104;11.396;2023-12-29T01:54:45;97261.66;;;5.19;100.00
48563;BME280;34981;49.104;11.396;2023-12-29T01:57:12;97258.97;;;5.19;100.00
48563;BME280;34981;49.104;11.396;2023-12-29T01:59:41;97263.88;;;5.22;100.00
48563;BME280;34981;49.104;11.396;2023-12-29T02:02:08;97259.38;;;5.22;100.00
48563;BME280;34981;49.104;11.396;2023-12-29T02:04:36;97272.72;;;5.22;100.00
48563;BME280;34981;49.104;11.396;2023-12-29T02:07:05;97265.94;;;5.20;100.00
48563;BME280;34981;49.104;11.396;2023-12-29T02:09:32;97264.50;;;5.17;100.00
48563;BME280;34981;49.104;11.396;2023-12-29T02:12:01;97271.47;;;5.18;100.00
48563;BME280;34981;49.104;11.396;2023-12-29T02:14:29;97281.53;;;5.16;100.00
48563;BME280;34981;49.104;11.396;2023-12-29T02:17:08;97292.19;;;5.16;100.00
48563;BME280;34981;49.104;11.396;2023-12-29T02:19:40;97286.84;;;5.16;100.00
48563;BME280;34981;49.104;11.396;2023-12-29T02:22:08;97292.38;;;5.15;100.00
48563;BME280;34981;49.104;11.396;2023-12-29T02:24:36;97296.06;;;5.14;100.00
48563;BME280;34981;49.104;11.396;2023-12-29T02:30:13;97309.59;;;5.12;100.00
48563;BME280;34981;49.104;11.396;2023-12-29T02:32:39;97309.00;;;5.10;100.00
48563;BME280;34981;49.104;11.396;2023-12-29T02:35:09;97319.41;;;5.05;100.00
48563;BME280;34981;49.104;11.396;2023-12-29T02:37:38;97319.84;;;5.02;100.00
48563;BME280;34981;49.104;11.396;2023-12-29T02:40:06;97329.03;;;4.99;100.00
48563;BME280;34981;49.104;11.396;2023-12-29T02:42:34;97350.56;;;4.98;100.00
48563;BME280;34981;49.104;11.396;2023-12-29T02:45:01;97331.50;;;5.01;100.00
48563;BME280;34981;49.104;11.396;2023-12-29T02:47:30;97344.44;;;5.04;100.00
48563;BME280;34981;49.104;11.396;2023-12-29T02:49:58;97350.56;;;5.04;100.00
48563;BME280;34981;49.104;11.396;2023-12-29T02:52:25;97355.69;;;5.06;100.00
48563;BME280;34981;49.104;11.396;2023-12-29T02:57:44;97369.66;;;5.08;100.00
48563;BME280;34981;49.104;11.396;2023-12-29T03:00:11;97375.19;;;5.06;100.00
48563;BME280;34981;49.104;11.396;2023-12-29T03:02:39;97386.03;;;5.05;100.00
48563;BME280;34981;49.104;11.396;2023-12-29T03:05:06;97393.19;;;4.98;100.00
48563;BME280;34981;49.104;11.396;2023-12-29T03:07:34;97396.25;;;4.95;100.00
48563;BME280;34981;49.104;11.396;2023-12-29T03:10:01;97389.28;;;4.94;100.00
48563;BME280;34981;49.104;11.396;2023-12-29T03:12:29;97392.34;;;4.91;100.00
48563;BME280;34981;49.104;11.396;2023-12-29T03:14:57;97397.06;;;4.89;100.00
48563;BME280;34981;49.104;11.396;2023-12-29T03:17:26;97406.69;;;4.90;100.00
48563;BME280;34981;49.104;11.396;2023-12-29T03:19:53;97411.00;;;4.91;100.00
48563;BME280;34981;49.104;11.396;2023-12-29T03:22:21;97416.13;;;4.92;100.00
48563;BME280;34981;49.104;11.396;2023-12-29T03:24:48;97417.56;;;4.88;100.00
48563;BME280;34981;49.104;11.396;2023-12-29T03:27:15;97413.25;;;4.87;100.00
48563;BME280;34981;49.104;11.396;2023-12-29T03:29:42;97415.09;;;4.87;100.00
48563;BME280;34981;49.104;11.396;2023-12-29T03:32:09;97410.31;;;4.82;100.00
48563;BME280;34981;49.104;11.396;2023-12-29T03:34:38;97416.47;;;4.83;100.00
48563;BME280;34981;49.104;11.396;2023-12-29T03:37:05;97416.72;;;4.81;100.00
48563;BME280;34981;49.104;11.396;2023-12-29T03:39:32;97421.59;;;4.78;100.00
48563;BME280;34981;49.104;11.396;2023-12-29T03:42:03;97407.03;;;4.74;100.00
48563;BME280;34981;49.104;11.396;2023-12-29T03:44:30;97399.66;;;4.76;100.00
48563;BME280;34981;49.104;11.396;2023-12-29T03:46:57;97416.88;;;4.73;100.00
48563;BME280;34981;49.104;11.396;2023-12-29T03:49:24;97415.59;;;4.69;100.00
48563;BME280;34981;49.104;11.396;2023-12-29T03:51:51;97407.38;;;4.64;100.00
48563;BME280;34981;49.104;11.396;2023-12-29T03:54:19;97415.56;;;4.62;100.00
48563;BME280;34981;49.104;11.396;2023-12-29T03:56:48;97416.34;;;4.56;100.00
48563;BME280;34981;49.104;11.396;2023-12-29T03:59:15;97415.53;;;4.56;100.00
48563;BME280;34981;49.104;11.396;2023-12-29T04:01:42;97417.56;;;4.54;100.00
48563;BME280;34981;49.104;11.396;2023-12-29T04:04:10;97427.63;;;4.58;100.00
48563;BME280;34981;49.104;11.396;2023-12-29T04:06:37;97432.78;;;4.60;100.00
48563;BME280;34981;49.104;11.396;2023-12-29T04:09:05;97425.34;;;4.55;100.00
48563;BME280;34981;49.104;11.396;2023-12-29T04:11:32;97427.38;;;4.53;100.00
48563;BME280;34981;49.104;11.396;2023-12-29T04:14:00;97437.66;;;4.56;100.00
48563;BME280;34981;49.104;11.396;2023-12-29T04:16:27;97430.88;;;4.54;100.00
48563;BME280;34981;49.104;11.396;2023-12-29T04:18:54;97439.06;;;4.52;100.00
48563;BME280;34981;49.104;11.396;2023-12-29T04:21:22;97433.53;;;4.54;100.00
48563;BME280;34981;49.104;11.396;2023-12-29T04:23:49;97436.41;;;4.52;100.00
48563;BME280;34981;49.104;11.396;2023-12-29T04:26:16;97440.09;;;4.51;100.00
48563;BME280;34981;49.104;11.396;2023-12-29T04:28:44;97453.41;;;4.51;100.00
48563;BME280;34981;49.104;11.396;2023-12-29T04:31:11;97453.59;;;4.50;100.00
48563;BME280;34981;49.104;11.396;2023-12-29T04:33:38;97459.09;;;4.48;100.00
48563;BME280;34981;49.104;11.396;2023-12-29T04:36:06;97463.78;;;4.46;100.00
48563;BME280;34981;49.104;11.396;2023-12-29T04:38:33;97472.81;;;4.45;100.00
48563;BME280;34981;49.104;11.396;2023-12-29T04:41:00;97481.81;;;4.44;100.00
48563;BME280;34981;49.104;11.396;2023-12-29T04:43:27;97481.41;;;4.47;100.00
48563;BME280;34981;49.104;11.396;2023-12-29T04:45:54;97487.97;;;4.45;100.00
48563;BME280;34981;49.104;11.396;2023-12-29T04:48:22;97488.53;;;4.40;100.00
48563;BME280;34981;49.104;11.396;2023-12-29T04:50:49;97494.44;;;4.36;100.00
48563;BME280;34981;49.104;11.396;2023-12-29T04:53:16;97495.69;;;4.40;100.00
48563;BME280;34981;49.104;11.396;2023-12-29T04:55:43;97498.94;;;4.35;100.00
48563;BME280;34981;49.104;11.396;2023-12-29T04:58:10;97495.28;;;4.36;100.00
48563;BME280;34981;49.104;11.396;2023-12-29T05:00:37;97516.56;;;4.36;100.00
48563;BME280;34981;49.104;11.396;2023-12-29T05:03:05;97527.88;;;4.38;100.00
48563;BME280;34981;49.104;11.396;2023-12-29T05:05:32;97532.78;;;4.41;100.00
48563;BME280;34981;49.104;11.396;2023-12-29T05:07:59;97532.78;;;4.41;100.00
48563;BME280;34981;49.104;11.396;2023-12-29T05:10:27;97540.41;;;4.44;100.00
48563;BME280;34981;49.104;11.396;2023-12-29T05:12:54;97540.13;;;4.39;100.00
48563;BME280;34981;49.104;11.396;2023-12-29T05:15:21;97546.09;;;4.41;100.00
48563;BME280;34981;49.104;11.396;2023-12-29T05:17:48;97537.09;;;4.42;100.00
48563;BME280;34981;49.104;11.396;2023-12-29T05:20:16;97543.25;;;4.43;100.00
48563;BME280;34981;49.104;11.396;2023-12-29T05:22:43;97553.91;;;4.43;100.00
48563;BME280;34981;49.104;11.396;2023-12-29T05:25:10;97562.72;;;4.43;100.00
48563;BME280;34981;49.104;11.396;2023-12-29T05:27:37;97570.06;;;4.41;100.00
48563;BME280;34981;49.104;11.396;2023-12-29T05:30:05;97573.56;;;4.42;100.00
48563;BME280;34981;49.104;11.396;2023-12-29T05:32:33;97581.72;;;4.40;100.00
48563;BME280;34981;49.104;11.396;2023-12-29T05:35:00;97596.88;;;4.40;100.00
48563;BME280;34981;49.104;11.396;2023-12-29T05:37:27;97608.16;;;4.42;100.00
48563;BME280;34981;49.104;11.396;2023-12-29T05:39:55;97613.31;;;4.43;100.00
48563;BME280;34981;49.104;11.396;2023-12-29T05:42:22;97624.59;;;4.45;100.00
48563;BME280;34981;49.104;11.396;2023-12-29T05:44:49;97634.41;;;4.45;100.00
48563;BME280;34981;49.104;11.396;2023-12-29T05:47:17;97644.25;;;4.44;100.00
48563;BME280;34981;49.104;11.396;2023-12-29T05:49:44;97640.34;;;4.47;100.00
48563;BME280;34981;49.104;11.396;2023-12-29T05:52:12;97647.34;;;4.48;100.00
48563;BME280;34981;49.104;11.396;2023-12-29T05:54:39;97661.47;;;4.48;100.00
48563;BME280;34981;49.104;11.396;2023-12-29T05:57:07;97665.34;;;4.46;100.00
48563;BME280;34981;49.104;11.396;2023-12-29T05:59:34;97661.88;;;4.45;100.00
48563;BME280;34981;49.104;11.396;2023-12-29T06:02:01;97661.22;;;4.43;100.00
48563;BME280;34981;49.104;11.396;2023-12-29T06:04:28;97667.00;;;4.47;100.00
48563;BME280;34981;49.104;11.396;2023-12-29T06:06:55;97668.63;;;4.48;100.00
48563;BME280;34981;49.104;11.396;2023-12-29T06:09:22;97677.03;;;4.45;100.00
48563;BME280;34981;49.104;11.396;2023-12-29T06:11:49;97682.53;;;4.43;100.00
48563;BME280;34981;49.104;11.396;2023-12-29T06:14:17;97686.47;;;4.47;100.00
48563;BME280;34981;49.104;11.396;2023-12-29T06:16:44;97708.88;;;4.53;100.00
48563;BME280;34981;49.104;11.396;2023-12-29T06:19:11;97708.47;;;4.56;100.00
48563;BME280;34981;49.104;11.396;2023-12-29T06:21:42;97709.94;;;4.58;100.00
48563;BME280;34981;49.104;11.396;2023-12-29T06:24:12;97717.53;;;4.61;100.00
48563;BME280;34981;49.104;11.396;2023-12-29T06:26:39;97730.25;;;4.59;100.00
48563;BME280;34981;49.104;11.396;2023-12-29T06:29:11;97733.91;;;4.58;100.00
48563;BME280;34981;49.104;11.396;2023-12-29T06:31:41;97737.59;;;4.57;100.00
48563;BME280;34981;49.104;11.396;2023-12-29T06:34:10;97743.91;;;4.56;100.00
48563;BME280;34981;49.104;11.396;2023-12-29T06:36:37;97749.91;;;4.58;100.00
48563;BME280;34981;49.104;11.396;2023-12-29T06:39:04;97746.22;;;4.59;100.00
48563;BME280;34981;49.104;11.396;2023-12-29T06:41:31;97757.31;;;4.63;100.00
48563;BME280;34981;49.104;11.396;2023-12-29T06:43:58;97770.09;;;4.67;100.00
48563;BME280;34981;49.104;11.396;2023-12-29T06:46:26;97773.34;;;4.69;100.00
48563;BME280;34981;49.104;11.396;2023-12-29T06:48:53;97776.66;;;4.72;100.00
48563;BME280;34981;49.104;11.396;2023-12-29T06:51:21;97782.44;;;4.75;100.00
48563;BME280;34981;49.104;11.396;2023-12-29T06:53:50;97789.50;;;4.83;100.00
48563;BME280;34981;49.104;11.396;2023-12-29T06:56:18;97790.13;;;4.85;100.00
48563;BME280;34981;49.104;11.396;2023-12-29T06:58:45;97793.81;;;4.84;100.00
48563;BME280;34981;49.104;11.396;2023-12-29T07:01:12;97798.13;;;4.85;100.00
48563;BME280;34981;49.104;11.396;2023-12-29T07:03:40;97813.75;;;4.88;100.00
48563;BME280;34981;49.104;11.396;2023-12-29T07:06:09;97826.06;;;4.89;100.00
48563;BME280;34981;49.104;11.396;2023-12-29T07:08:36;97829.34;;;4.91;100.00
48563;BME280;34981;49.104;11.396;2023-12-29T07:11:03;97832.28;;;4.96;100.00
48563;BME280;34981;49.104;11.396;2023-12-29T07:13:30;97819.97;;;4.95;100.00
48563;BME280;34981;49.104;11.396;2023-12-29T07:15:58;97821.81;;;4.94;100.00
48563;BME280;34981;49.104;11.396;2023-12-29T07:18:25;97832.28;;;4.96;100.00
48563;BME280;34981;49.104;11.396;2023-12-29T07:20:52;97824.84;;;4.91;100.00
48563;BME280;34981;49.104;11.396;2023-12-29T07:23:19;97831.66;;;4.94;100.00
48563;BME280;34981;49.104;11.396;2023-12-29T07:25:47;97828.97;;;4.94;100.00
48563;BME280;34981;49.104;11.396;2023-12-29T07:28:15;97838.44;;;4.96;100.00
48563;BME280;34981;49.104;11.396;2023-12-29T07:30:42;97837.63;;;4.96;100.00
48563;BME280;34981;49.104;11.396;2023-12-29T07:33:09;97838.81;;;4.93;100.00
48563;BME280;34981;49.104;11.396;2023-12-29T07:35:36;97842.50;;;4.92;100.00
48563;BME280;34981;49.104;11.396;2023-12-29T07:38:04;97833.66;;;4.92;100.00
48563;BME280;34981;49.104;11.396;2023-12-29T07:40:31;97838.63;;;4.95;100.00
48563;BME280;34981;49.104;11.396;2023-12-29T07:42:58;97838.63;;;4.95;100.00
48563;BME280;34981;49.104;11.396;2023-12-29T07:45:25;97835.56;;;4.98;100.00
48563;BME280;34981;49.104;11.396;2023-12-29T07:47:52;97846.13;;;5.06;100.00
48563;BME280;34981;49.104;11.396;2023-12-29T07:50:19;97841.88;;;5.12;100.00
48563;BME280;34981;49.104;11.396;2023-12-29T07:52:47;97842.97;;;5.17;100.00
48563;BME280;34981;49.104;11.396;2023-12-29T07:55:14;97844.25;;;5.21;100.00
48563;BME280;34981;49.104;11.396;2023-12-29T07:57:45;97850.47;;;5.28;100.00
48563;BME280;34981;49.104;11.396;2023-12-29T08:00:14;97858.16;;;5.38;100.00
48563;BME280;34981;49.104;11.396;2023-12-29T08:02:42;97862.16;;;5.48;100.00
48563;BME280;34981;49.104;11.396;2023-12-29T08:05:09;97860.75;;;5.53;100.00
48563;BME280;34981;49.104;11.396;2023-12-29T08:07:36;97875.22;;;5.65;100.00
48563;BME280;34981;49.104;11.396;2023-12-29T08:10:05;97870.78;;;5.72;100.00
48563;BME280;34981;49.104;11.396;2023-12-29T08:12:32;97865.44;;;5.72;100.00
48563;BME280;34981;49.104;11.396;2023-12-29T08:15:03;97867.78;;;5.81;100.00
48563;BME280;34981;49.104;11.396;2023-12-29T08:17:31;97880.72;;;5.84;100.00
48563;BME280;34981;49.104;11.396;2023-12-29T08:19:58;97887.44;;;5.95;100.00
48563;BME280;34981;49.104;11.396;2023-12-29T08:22:29;97890.22;;;6.08;100.00
48563;BME280;34981;49.104;11.396;2023-12-29T08:24:56;97882.19;;;6.08;100.00
48563;BME280;34981;49.104;11.396;2023-12-29T08:27:24;97878.13;;;6.12;100.00
48563;BME280;34981;49.104;11.396;2023-12-29T08:29:52;97879.97;;;6.12;100.00
48563;BME280;34981;49.104;11.396;2023-12-29T08:32:20;97860.66;;;6.10;100.00
48563;BME280;34981;49.104;11.396;2023-12-29T08:34:48;97858.03;;;6.16;100.00
48563;BME280;34981;49.104;11.396;2023-12-29T08:37:16;97860.53;;;6.24;100.00
48563;BME280;34981;49.104;11.396;2023-12-29T08:39:47;97838.28;;;6.11;100.00
48563;BME280;34981;49.104;11.396;2023-12-29T08:42:17;97831.31;;;6.16;100.00
48563;BME280;34981;49.104;11.396;2023-12-29T08:44:44;97833.84;;;6.24;100.00
48563;BME280;34981;49.104;11.396;2023-12-29T08:47:11;97827.91;;;6.29;100.00
48563;BME280;34981;49.104;11.396;2023-12-29T08:49:38;97836.78;;;6.36;100.00
48563;BME280;34981;49.104;11.396;2023-12-29T08:52:08;97821.19;;;6.40;100.00
48563;BME280;34981;49.104;11.396;2023-12-29T08:54:36;97826.34;;;6.41;100.00
48563;BME280;34981;49.104;11.396;2023-12-29T08:57:06;97819.97;;;6.42;100.00
48563;BME280;34981;49.104;11.396;2023-12-29T08:59:34;97810.50;;;6.40;100.00
48563;BME280;34981;49.104;11.396;2023-12-29T09:02:01;97799.81;;;6.40;100.00
48563;BME280;34981;49.104;11.396;2023-12-29T09:04:28;97802.34;;;6.54;100.00
48563;BME280;34981;49.104;11.396;2023-12-29T09:06:55;97803.63;;;6.65;100.00
48563;BME280;34981;49.104;11.396;2023-12-29T09:09:23;97802.44;;;6.74;100.00
48563;BME280;34981;49.104;11.396;2023-12-29T09:11:50;97790.91;;;6.74;100.00
48563;BME280;34981;49.104;11.396;2023-12-29T09:14:17;97782.69;;;6.69;100.00
48563;BME280;34981;49.104;11.396;2023-12-29T09:16:44;97778.19;;;6.76;100.00
48563;BME280;34981;49.104;11.396;2023-12-29T09:19:13;97777.00;;;6.98;100.00
48563;BME280;34981;49.104;11.396;2023-12-29T09:21:57;97762.19;;;6.95;100.00
48563;BME280;34981;49.104;11.396;2023-12-29T09:24:24;97736.28;;;6.89;100.00
48563;BME280;34981;49.104;11.396;2023-12-29T09:26:51;97740.81;;;7.09;100.00
48563;BME280;34981;49.104;11.396;2023-12-29T09:29:19;97728.69;;;7.06;100.00
48563;BME280;34981;49.104;11.396;2023-12-29T09:31:46;97731.38;;;7.19;100.00
48563;BME280;34981;49.104;11.396;2023-12-29T09:34:14;97717.38;;;7.24;100.00
48563;BME280;34981;49.104;11.396;2023-12-29T09:36:41;97695.97;;;7.24;100.00
48563;BME280;34981;49.104;11.396;2023-12-29T09:39:08;97689.41;;;7.33;100.00
48563;BME280;34981;49.104;11.396;2023-12-29T09:41:35;97685.91;;;7.39;100.00
48563;BME280;34981;49.104;11.396;2023-12-29T09:44:06;97662.84;;;7.38;100.00
48563;BME280;34981;49.104;11.396;2023-12-29T09:46:39;97658.09;;;7.53;100.00
48563;BME280;34981;49.104;11.396;2023-12-29T09:49:08;97637.94;;;7.57;100.00
48563;BME280;34981;49.104;11.396;2023-12-29T09:51:36;97617.53;;;7.56;100.00
48563;BME280;34981;49.104;11.396;2023-12-29T09:54:03;97598.84;;;7.50;100.00
48563;BME280;34981;49.104;11.396;2023-12-29T09:56:31;97567.97;;;7.47;100.00
48563;BME280;34981;49.104;11.396;2023-12-29T09:58:58;97532.19;;;7.35;100.00
48563;BME280;34981;49.104;11.396;2023-12-29T10:01:26;97508.75;;;7.37;100.00
48563;BME280;34981;49.104;11.396;2023-12-29T10:03:57;97485.47;;;7.37;100.00
48563;BME280;34981;49.104;11.396;2023-12-29T10:06:24;97448.84;;;7.31;100.00
48563;BME280;34981;49.104;11.396;2023-12-29T10:08:52;97424.41;;;7.28;100.00
48563;BME280;34981;49.104;11.396;2023-12-29T10:11:22;97399.72;;;7.26;100.00
48563;BME280;34981;49.104;11.396;2023-12-29T10:13:52;97383.25;;;7.29;100.00
48563;BME280;34981;49.104;11.396;2023-12-29T10:18:57;97330.88;;;7.15;100.00
48563;BME280;34981;49.104;11.396;2023-12-29T10:21:29;97303.09;;;7.16;100.00
48563;BME280;34981;49.104;11.396;2023-12-29T10:24:03;97289.06;;;7.20;100.00
48563;BME280;34981;49.104;11.396;2023-12-29T10:26:36;97254.72;;;7.17;100.00
48563;BME280;34981;49.104;11.396;2023-12-29T10:29:05;97238.47;;;7.19;100.00
48563;BME280;34981;49.104;11.396;2023-12-29T10:31:33;97210.53;;;7.15;100.00
48563;BME280;34981;49.104;11.396;2023-12-29T10:34:20;97204.72;;;7.18;100.00
48563;BME280;34981;49.104;11.396;2023-12-29T10:36:48;97168.78;;;7.14;100.00
48563;BME280;34981;49.104;11.396;2023-12-29T10:39:18;97151.31;;;7.11;100.00
48563;BME280;34981;49.104;11.396;2023-12-29T10:41:45;97128.66;;;7.14;100.00
48563;BME280;34981;49.104;11.396;2023-12-29T10:44:13;97111.25;;;7.04;100.00
48563;BME280;34981;49.104;11.396;2023-12-29T10:46:40;97089.88;;;7.04;100.00
48563;BME280;34981;49.104;11.396;2023-12-29T10:49:10;97077.53;;;7.03;100.00
48563;BME280;34981;49.104;11.396;2023-12-29T10:51:38;97063.00;;;6.99;100.00
48563;BME280;34981;49.104;11.396;2023-12-29T10:54:05;97052.09;;;7.01;100.00
48563;BME280;34981;49.104;11.396;2023-12-29T10:56:33;97042.78;;;7.03;100.00
48563;BME280;34981;49.104;11.396;2023-12-29T10:59:03;97037.28;;;7.17;100.00
48563;BME280;34981;49.104;11.396;2023-12-29T11:01:34;97033.91;;;7.28;100.00
48563;BME280;34981;49.104;11.396;2023-12-29T11:04:02;97025.28;;;7.26;100.00
48563;BME280;34981;49.104;11.396;2023-12-29T11:06:40;97018.47;;;7.30;100.00
48563;BME280;34981;49.104;11.396;2023-12-29T11:09:08;96998.53;;;7.26;100.00
48563;BME280;34981;49.104;11.396;2023-12-29T11:11:37;96991.84;;;7.35;100.00
48563;BME280;34981;49.104;11.396;2023-12-29T11:14:04;96986.03;;;7.38;100.00
48563;BME280;34981;49.104;11.396;2023-12-29T11:16:32;96974.56;;;7.37;100.00
48563;BME280;34981;49.104;11.396;2023-12-29T11:18:59;96953.00;;;7.32;100.00
48563;BME280;34981;49.104;11.396;2023-12-29T11:21:27;96938.78;;;7.32;100.00
48563;BME280;34981;49.104;11.396;2023-12-29T11:23:57;96930.34;;;7.35;100.00
48563;BME280;34981;49.104;11.396;2023-12-29T11:26:25;96928.91;;;7.32;100.00
48563;BME280;34981;49.104;11.396;2023-12-29T11:28:52;96917.06;;;7.28;100.00
48563;BME280;34981;49.104;11.396;2023-12-29T11:31:20;96918.59;;;7.36;100.00
48563;BME280;34981;49.104;11.396;2023-12-29T11:33:52;96915.94;;;7.36;100.00
48563;BME280;34981;49.104;11.396;2023-12-29T11:36:29;96910.34;;;7.37;100.00
48563;BME280;34981;49.104;11.396;2023-12-29T11:41:37;96897.31;;;7.41;100.00
48563;BME280;34981;49.104;11.396;2023-12-29T11:44:06;96890.03;;;7.48;100.00
48563;BME280;34981;49.104;11.396;2023-12-29T11:49:01;96883.41;;;7.51;100.00
48563;BME280;34981;49.104;11.396;2023-12-29T11:51:42;96871.09;;;7.50;100.00
48563;BME280;34981;49.104;11.396;2023-12-29T11:54:21;96847.22;;;7.48;100.00
48563;BME280;34981;49.104;11.396;2023-12-29T11:56:48;96850.50;;;7.50;100.00
48563;BME280;34981;49.104;11.396;2023-12-29T11:59:24;96852.94;;;7.52;100.00
48563;BME280;34981;49.104;11.396;2023-12-29T12:01:55;96833.72;;;7.43;100.00
48563;BME280;34981;49.104;11.396;2023-12-29T12:09:37;96822.09;;;7.49;100.00
48563;BME280;34981;49.104;11.396;2023-12-29T12:12:05;96828.06;;;7.51;100.00
48563;BME280;34981;49.104;11.396;2023-12-29T12:14:48;96820.34;;;7.43;100.00
48563;BME280;34981;49.104;11.396;2023-12-29T12:17:29;96804.06;;;7.45;100.00
48563;BME280;34981;49.104;11.396;2023-12-29T12:19:58;96792.66;;;7.37;100.00
48563;BME280;34981;49.104;11.396;2023-12-29T12:22:25;96788.56;;;7.35;100.00
48563;BME280;34981;49.104;11.396;2023-12-29T12:24:59;96780.56;;;7.35;100.00
48563;BME280;34981;49.104;11.396;2023-12-29T12:27:27;96782.75;;;7.38;100.00
48563;BME280;34981;49.104;11.396;2023-12-29T12:29:55;96771.22;;;7.26;100.00
48563;BME280;34981;49.104;11.396;2023-12-29T12:32:27;96774.72;;;7.26;100.00
48563;BME280;34981;49.104;11.396;2023-12-29T12:34:55;96773.44;;;7.29;100.00
48563;BME280;34981;49.104;11.396;2023-12-29T12:37:23;96773.34;;;7.35;100.00
48563;BME280;34981;49.104;11.396;2023-12-29T12:39:51;96764.38;;;7.30;100.00
48563;BME280;34981;49.104;11.396;2023-12-29T12:42:19;96764.84;;;7.27;100.00
48563;BME280;34981;49.104;11.396;2023-12-29T12:44:47;96774.94;;;7.25;100.00
48563;BME280;34981;49.104;11.396;2023-12-29T12:47:18;96776.34;;;7.27;100.00
48563;BME280;34981;49.104;11.396;2023-12-29T12:49:49;96778.91;;;7.34;100.00
48563;BME280;34981;49.104;11.396;2023-12-29T12:52:17;96781.97;;;7.37;100.00
48563;BME280;34981;49.104;11.396;2023-12-29T12:54:44;96787.88;;;7.39;100.00
48563;BME280;34981;49.104;11.396;2023-12-29T12:57:12;96785.69;;;7.36;100.00
48563;BME280;34981;49.104;11.396;2023-12-29T12:59:40;96785.09;;;7.46;100.00
48563;BME280;34981;49.104;11.396;2023-12-29T13:02:07;96790.56;;;7.39;100.00
48563;BME280;34981;49.104;11.396;2023-12-29T13:04:38;96779.19;;;7.44;100.00
48563;BME280;34981;49.104;11.396;2023-12-29T13:07:06;96782.44;;;7.46;100.00
48563;BME280;34981;49.104;11.396;2023-12-29T13:09:35;96778.59;;;7.42;100.00
48563;BME280;34981;49.104;11.396;2023-12-29T13:12:12;96762.09;;;7.45;100.00
48563;BME280;34981;49.104;11.396;2023-12-29T13:14:39;96766.84;;;7.43;100.00